sensor_id;sensor_type;location;lat;lon;timestamp;P1;durP1;ratioP1;P2;durP2;ratioP2
3689;SDS011;1861;50.240;8.596;2022-12-07T00:01:18;13.17;;;7.30;;
3689;SDS011;1861;50.240;8.596;2022-12-07T00:03:48;9.90;;;6.70;;
3689;SDS011;1861;50.240;8.596;2022-12-07T00:06:18;12.97;;;7.17;;
3689;SDS011;1861;50.240;8.596;2022-12-07T00:08:49;15.33;;;7.43;;
3689;SDS011;1861;50.240;8.596;2022-12-07T00:11:18;9.83;;;6.63;;
3689;SDS011;1861;50.240;8.596;2022-12-07T00:13:47;10.77;;;6.93;;
3689;SDS011;1861;50.240;8.596;2022-12-07T00:16:20;11.53;;;6.90;;
3689;SDS011;1861;50.240;8.596;2022-12-07T00:18:49;13.37;;;8.03;;
3689;SDS011;1861;50.240;8.596;2022-12-07T00:21:18;16.37;;;9.07;;
3689;SDS011;1861;50.240;8.596;2022-12-07T00:23:49;25.27;;;13.37;;
3689;SDS011;1861;50.240;8.596;2022-12-07T00:26:19;25.17;;;13.00;;
3689;SDS011;1861;50.240;8.596;2022-12-07T00:28:49;14.97;;;9.00;;
3689;SDS011;1861;50.240;8.596;2022-12-07T00:31:20;13.27;;;7.30;;
3689;SDS011;1861;50.240;8.596;2022-12-07T00:33:49;15.80;;;8.73;;
3689;SDS011;1861;50.240;8.596;2022-12-07T00:36:18;16.10;;;8.97;;
3689;SDS011;1861;50.240;8.596;2022-12-07T00:38:53;14.20;;;7.20;;
3689;SDS011;1861;50.240;8.596;2022-12-07T00:41:25;12.17;;;7.23;;
3689;SDS011;1861;50.240;8.596;2022-12-07T00:43:54;16.50;;;8.27;;
3689;SDS011;1861;50.240;8.596;2022-12-07T00:46:23;13.27;;;7.13;;
3689;SDS011;1861;50.240;8.596;2022-12-07T00:48:52;18.50;;;11.50;;
3689;SDS011;1861;50.240;8.596;2022-12-07T00:51:22;18.90;;;10.37;;
3689;SDS011;1861;50.240;8.596;2022-12-07T00:53:51;14.30;;;8.40;;
3689;SDS011;1861;50.240;8.596;2022-12-07T00:56:22;13.17;;;7.53;;
3689;SDS011;1861;50.240;8.596;2022-12-07T00:58:52;15.00;;;8.07;;
3689;SDS011;1861;50.240;8.596;2022-12-07T01:01:22;12.67;;;7.53;;
3689;SDS011;1861;50.240;8.596;2022-12-07T01:03:51;14.37;;;7.43;;
3689;SDS011;1861;50.240;8.596;2022-12-07T01:06:20;14.40;;;7.77;;
3689;SDS011;1861;50.240;8.596;2022-12-07T01:08:49;14.73;;;7.93;;
3689;SDS011;1861;50.240;8.596;2022-12-07T01:11:19;14.50;;;7.70;;
3689;SDS011;1861;50.240;8.596;2022-12-07T01:13:50;14.13;;;7.80;;
3689;SDS011;1861;50.240;8.596;2022-12-07T01:16:19;13.57;;;7.60;;
3689;SDS011;1861;50.240;8.596;2022-12-07T01:18:50;13.40;;;7.80;;
3689;SDS011;1861;50.240;8.596;2022-12-07T01:21:21;14.80;;;8.07;;
3689;SDS011;1861;50.240;8.596;2022-12-07T01:23:50;13.63;;;7.87;;
3689;SDS011;1861;50.240;8.596;2022-12-07T01:26:20;15.20;;;7.90;;
3689;SDS011;1861;50.240;8.596;2022-12-07T01:28:50;14.60;;;8.20;;
3689;SDS011;1861;50.240;8.596;2022-12-07T01:31:21;14.97;;;8.30;;
3689;SDS011;1861;50.240;8.596;2022-12-07T01:33:52;10.47;;;6.20;;
3689;SDS011;1861;50.240;8.596;2022-12-07T01:36:24;12.77;;;7.40;;
3689;SDS011;1861;50.240;8.596;2022-12-07T01:38:53;14.47;;;7.97;;
3689;SDS011;1861;50.240;8.596;2022-12-07T01:41:25;11.37;;;7.33;;
3689;SDS011;1861;50.240;8.596;2022-12-07T01:44:11;13.90;;;7.77;;
3689;SDS011;1861;50.240;8.596;2022-12-07T01:46:45;13.27;;;6.40;;
3689;SDS011;1861;50.240;8.596;2022-12-07T01:49:16;13.17;;;7.33;;
3689;SDS011;1861;50.240;8.596;2022-12-07T01:51:49;11.23;;;7.27;;
3689;SDS011;1861;50.240;8.596;2022-12-07T01:54:20;11.97;;;7.30;;
3689;SDS011;1861;50.240;8.596;2022-12-07T01:56:51;13.30;;;7.20;;
3689;SDS011;1861;50.240;8.596;2022-12-07T01:59:23;12.23;;;7.43;;
3689;SDS011;1861;50.240;8.596;2022-12-07T02:01:53;11.03;;;6.70;;
3689;SDS011;1861;50.240;8.596;2022-12-07T02:04:22;15.20;;;7.87;;
3689;SDS011;1861;50.240;8.596;2022-12-07T02:06:51;14.13;;;7.00;;
3689;SDS011;1861;50.240;8.596;2022-12-07T02:09:21;11.67;;;7.20;;
3689;SDS011;1861;50.240;8.596;2022-12-07T02:11:50;12.33;;;7.37;;
3689;SDS011;1861;50.240;8.596;2022-12-07T02:14:19;16.40;;;8.00;;
3689;SDS011;1861;50.240;8.596;2022-12-07T02:16:51;13.40;;;7.60;;
3689;SDS011;1861;50.240;8.596;2022-12-07T02:22:54;12.00;;;6.27;;
3689;SDS011;1861;50.240;8.596;2022-12-07T02:25:45;12.80;;;7.20;;
3689;SDS011;1861;50.240;8.596;2022-12-07T02:28:31;10.40;;;6.47;;
3689;SDS011;1861;50.240;8.596;2022-12-07T02:31:06;12.80;;;6.77;;
3689;SDS011;1861;50.240;8.596;2022-12-07T02:33:37;12.87;;;6.70;;
3689;SDS011;1861;50.240;8.596;2022-12-07T02:36:10;13.10;;;6.20;;
3689;SDS011;1861;50.240;8.596;2022-12-07T02:38:43;12.93;;;5.90;;
3689;SDS011;1861;50.240;8.596;2022-12-07T02:41:16;9.57;;;5.50;;
3689;SDS011;1861;50.240;8.596;2022-12-07T02:43:50;13.90;;;6.17;;
3689;SDS011;1861;50.240;8.596;2022-12-07T02:46:23;9.20;;;5.07;;
3689;SDS011;1861;50.240;8.596;2022-12-07T02:48:56;7.20;;;4.83;;
3689;SDS011;1861;50.240;8.596;2022-12-07T02:51:25;9.00;;;4.77;;
3689;SDS011;1861;50.240;8.596;2022-12-07T02:53:56;8.77;;;5.30;;
3689;SDS011;1861;50.240;8.596;2022-12-07T02:56:26;7.33;;;4.40;;
3689;SDS011;1861;50.240;8.596;2022-12-07T02:59:06;7.57;;;3.83;;
3689;SDS011;1861;50.240;8.596;2022-12-07T03:01:47;5.80;;;3.67;;
3689;SDS011;1861;50.240;8.596;2022-12-07T03:04:27;6.53;;;3.93;;
3689;SDS011;1861;50.240;8.596;2022-12-07T03:07:05;4.53;;;2.90;;
3689;SDS011;1861;50.240;8.596;2022-12-07T03:09:41;4.23;;;2.87;;
3689;SDS011;1861;50.240;8.596;2022-12-07T03:12:14;3.93;;;2.10;;
3689;SDS011;1861;50.240;8.596;2022-12-07T03:14:49;2.43;;;2.23;;
3689;SDS011;1861;50.240;8.596;2022-12-07T03:17:24;3.67;;;2.30;;
3689;SDS011;1861;50.240;8.596;2022-12-07T03:19:57;4.83;;;2.80;;
3689;SDS011;1861;50.240;8.596;2022-12-07T03:22:28;3.87;;;3.10;;
3689;SDS011;1861;50.240;8.596;2022-12-07T03:25:00;2.60;;;2.03;;
3689;SDS011;1861;50.240;8.596;2022-12-07T03:27:31;4.20;;;2.70;;
3689;SDS011;1861;50.240;8.596;2022-12-07T03:30:03;4.20;;;2.90;;
3689;SDS011;1861;50.240;8.596;2022-12-07T03:32:37;2.93;;;2.30;;
3689;SDS011;1861;50.240;8.596;2022-12-07T03:35:11;3.60;;;2.50;;
3689;SDS011;1861;50.240;8.596;2022-12-07T03:37:44;4.03;;;2.87;;
3689;SDS011;1861;50.240;8.596;2022-12-07T03:40:20;5.07;;;3.00;;
3689;SDS011;1861;50.240;8.596;2022-12-07T03:42:52;4.57;;;3.23;;
3689;SDS011;1861;50.240;8.596;2022-12-07T03:45:23;3.97;;;3.00;;
3689;SDS011;1861;50.240;8.596;2022-12-07T03:48:00;6.23;;;3.80;;
3689;SDS011;1861;50.240;8.596;2022-12-07T03:50:36;5.47;;;3.30;;
3689;SDS011;1861;50.240;8.596;2022-12-07T03:53:11;4.67;;;2.90;;
3689;SDS011;1861;50.240;8.596;2022-12-07T03:55:43;5.67;;;3.70;;
3689;SDS011;1861;50.240;8.596;2022-12-07T03:58:14;5.13;;;3.27;;
3689;SDS011;1861;50.240;8.596;2022-12-07T04:00:46;7.40;;;4.20;;
3689;SDS011;1861;50.240;8.596;2022-12-07T04:03:17;5.17;;;3.40;;
3689;SDS011;1861;50.240;8.596;2022-12-07T04:05:45;6.20;;;3.30;;
3689;SDS011;1861;50.240;8.596;2022-12-07T04:08:13;5.67;;;3.67;;
3689;SDS011;1861;50.240;8.596;2022-12-07T04:10:41;4.73;;;3.23;;
3689;SDS011;1861;50.240;8.596;2022-12-07T04:13:09;5.70;;;3.70;;
3689;SDS011;1861;50.240;8.596;2022-12-07T04:15:37;4.40;;;2.83;;
3689;SDS011;1861;50.240;8.596;2022-12-07T04:18:06;4.53;;;3.17;;
3689;SDS011;1861;50.240;8.596;2022-12-07T04:20:35;6.70;;;3.73;;
3689;SDS011;1861;50.240;8.596;2022-12-07T04:23:03;6.40;;;4.07;;
3689;SDS011;1861;50.240;8.596;2022-12-07T04:25:31;5.73;;;3.77;;
3689;SDS011;1861;50.240;8.596;2022-12-07T04:27:59;4.87;;;3.00;;
3689;SDS011;1861;50.240;8.596;2022-12-07T04:30:27;6.53;;;3.60;;
3689;SDS011;1861;50.240;8.596;2022-12-07T04:32:56;4.80;;;3.60;;
3689;SDS011;1861;50.240;8.596;2022-12-07T04:35:24;6.60;;;3.43;;
3689;SDS011;1861;50.240;8.596;2022-12-07T04:37:53;4.63;;;3.60;;
3689;SDS011;1861;50.240;8.596;2022-12-07T04:40:21;3.97;;;3.13;;
3689;SDS011;1861;50.240;8.596;2022-12-07T04:42:49;4.30;;;2.90;;
3689;SDS011;1861;50.240;8.596;2022-12-07T04:45:17;6.03;;;3.30;;
3689;SDS011;1861;50.240;8.596;2022-12-07T04:47:45;6.00;;;3.20;;
3689;SDS011;1861;50.240;8.596;2022-12-07T04:50:13;3.90;;;3.00;;
3689;SDS011;1861;50.240;8.596;2022-12-07T04:52:41;3.80;;;2.77;;
3689;SDS011;1861;50.240;8.596;2022-12-07T04:55:11;4.40;;;2.70;;
3689;SDS011;1861;50.240;8.596;2022-12-07T04:57:39;4.13;;;2.77;;
3689;SDS011;1861;50.240;8.596;2022-12-07T05:00:07;4.03;;;2.90;;
3689;SDS011;1861;50.240;8.596;2022-12-07T05:02:36;2.30;;;2.10;;
3689;SDS011;1861;50.240;8.596;2022-12-07T05:05:04;4.23;;;2.37;;
3689;SDS011;1861;50.240;8.596;2022-12-07T05:07:32;2.60;;;2.37;;
3689;SDS011;1861;50.240;8.596;2022-12-07T05:10:01;3.63;;;2.20;;
3689;SDS011;1861;50.240;8.596;2022-12-07T05:12:30;3.90;;;2.50;;
3689;SDS011;1861;50.240;8.596;2022-12-07T05:14:58;3.10;;;2.60;;
3689;SDS011;1861;50.240;8.596;2022-12-07T05:17:26;3.67;;;2.70;;
3689;SDS011;1861;50.240;8.596;2022-12-07T05:19:54;4.50;;;2.87;;
3689;SDS011;1861;50.240;8.596;2022-12-07T05:22:22;4.73;;;2.90;;
3689;SDS011;1861;50.240;8.596;2022-12-07T05:24:54;3.37;;;3.07;;
3689;SDS011;1861;50.240;8.596;2022-12-07T05:27:22;4.07;;;3.03;;
3689;SDS011;1861;50.240;8.596;2022-12-07T05:29:52;4.63;;;3.10;;
3689;SDS011;1861;50.240;8.596;2022-12-07T05:32:20;6.37;;;3.53;;
3689;SDS011;1861;50.240;8.596;2022-12-07T05:34:48;5.30;;;3.50;;
3689;SDS011;1861;50.240;8.596;2022-12-07T05:37:16;5.80;;;3.57;;
3689;SDS011;1861;50.240;8.596;2022-12-07T05:39:44;6.03;;;3.60;;
3689;SDS011;1861;50.240;8.596;2022-12-07T05:42:12;5.73;;;3.50;;
3689;SDS011;1861;50.240;8.596;2022-12-07T05:44:41;8.20;;;4.60;;
3689;SDS011;1861;50.240;8.596;2022-12-07T05:47:12;6.37;;;3.70;;
3689;SDS011;1861;50.240;8.596;2022-12-07T05:49:41;6.53;;;3.67;;
3689;SDS011;1861;50.240;8.596;2022-12-07T05:52:09;7.50;;;4.83;;
3689;SDS011;1861;50.240;8.596;2022-12-07T05:54:37;5.17;;;3.70;;
3689;SDS011;1861;50.240;8.596;2022-12-07T05:57:05;5.37;;;3.90;;
3689;SDS011;1861;50.240;8.596;2022-12-07T05:59:33;7.83;;;4.13;;
3689;SDS011;1861;50.240;8.596;2022-12-07T06:02:01;8.50;;;4.73;;
3689;SDS011;1861;50.240;8.596;2022-12-07T06:04:33;8.70;;;3.90;;
3689;SDS011;1861;50.240;8.596;2022-12-07T06:07:02;5.80;;;3.60;;
3689;SDS011;1861;50.240;8.596;2022-12-07T06:09:31;10.23;;;4.53;;
3689;SDS011;1861;50.240;8.596;2022-12-07T06:12:00;10.40;;;4.30;;
3689;SDS011;1861;50.240;8.596;2022-12-07T06:14:47;6.40;;;4.37;;
3689;SDS011;1861;50.240;8.596;2022-12-07T06:17:15;5.20;;;4.00;;
3689;SDS011;1861;50.240;8.596;2022-12-07T06:19:44;6.30;;;4.30;;
3689;SDS011;1861;50.240;8.596;2022-12-07T06:22:13;7.77;;;4.63;;
3689;SDS011;1861;50.240;8.596;2022-12-07T06:24:42;5.20;;;3.40;;
3689;SDS011;1861;50.240;8.596;2022-12-07T06:27:11;5.00;;;4.00;;
3689;SDS011;1861;50.240;8.596;2022-12-07T06:29:39;6.97;;;4.50;;
3689;SDS011;1861;50.240;8.596;2022-12-07T06:32:07;6.07;;;4.07;;
3689;SDS011;1861;50.240;8.596;2022-12-07T06:34:36;6.23;;;4.53;;
3689;SDS011;1861;50.240;8.596;2022-12-07T06:37:05;8.30;;;4.17;;
3689;SDS011;1861;50.240;8.596;2022-12-07T06:39:34;7.30;;;4.63;;
3689;SDS011;1861;50.240;8.596;2022-12-07T06:42:02;7.57;;;4.73;;
3689;SDS011;1861;50.240;8.596;2022-12-07T06:44:30;6.57;;;4.40;;
3689;SDS011;1861;50.240;8.596;2022-12-07T06:46:59;5.90;;;4.37;;
3689;SDS011;1861;50.240;8.596;2022-12-07T06:49:47;8.97;;;4.83;;
3689;SDS011;1861;50.240;8.596;2022-12-07T06:52:16;4.90;;;3.43;;
3689;SDS011;1861;50.240;8.596;2022-12-07T06:54:44;5.60;;;4.13;;
3689;SDS011;1861;50.240;8.596;2022-12-07T06:57:12;6.47;;;3.33;;
3689;SDS011;1861;50.240;8.596;2022-12-07T06:59:40;9.23;;;4.10;;
3689;SDS011;1861;50.240;8.596;2022-12-07T07:02:08;5.23;;;3.67;;
3689;SDS011;1861;50.240;8.596;2022-12-07T07:04:37;3.97;;;2.90;;
3689;SDS011;1861;50.240;8.596;2022-12-07T07:07:05;5.90;;;3.93;;
3689;SDS011;1861;50.240;8.596;2022-12-07T07:09:34;6.37;;;3.17;;
3689;SDS011;1861;50.240;8.596;2022-12-07T07:12:02;8.90;;;4.00;;
3689;SDS011;1861;50.240;8.596;2022-12-07T07:14:31;5.70;;;3.17;;
3689;SDS011;1861;50.240;8.596;2022-12-07T07:16:59;5.57;;;3.43;;
3689;SDS011;1861;50.240;8.596;2022-12-07T07:19:27;5.80;;;3.03;;
3689;SDS011;1861;50.240;8.596;2022-12-07T07:21:55;4.37;;;2.80;;
3689;SDS011;1861;50.240;8.596;2022-12-07T07:24:23;4.40;;;2.73;;
3689;SDS011;1861;50.240;8.596;2022-12-07T07:26:52;4.20;;;2.63;;
3689;SDS011;1861;50.240;8.596;2022-12-07T07:29:20;4.20;;;2.70;;
3689;SDS011;1861;50.240;8.596;2022-12-07T07:31:49;5.27;;;3.20;;
3689;SDS011;1861;50.240;8.596;2022-12-07T07:34:17;2.57;;;2.23;;
3689;SDS011;1861;50.240;8.596;2022-12-07T07:36:45;2.70;;;2.17;;
3689;SDS011;1861;50.240;8.596;2022-12-07T07:39:13;3.17;;;2.87;;
3689;SDS011;1861;50.240;8.596;2022-12-07T07:41:41;4.93;;;3.27;;
3689;SDS011;1861;50.240;8.596;2022-12-07T07:44:14;6.30;;;3.57;;
3689;SDS011;1861;50.240;8.596;2022-12-07T07:46:42;4.97;;;3.43;;
3689;SDS011;1861;50.240;8.596;2022-12-07T07:49:10;3.70;;;3.23;;
3689;SDS011;1861;50.240;8.596;2022-12-07T07:51:38;5.50;;;3.40;;
3689;SDS011;1861;50.240;8.596;2022-12-07T07:54:06;5.93;;;3.70;;
3689;SDS011;1861;50.240;8.596;2022-12-07T07:56:34;6.17;;;3.63;;
3689;SDS011;1861;50.240;8.596;2022-12-07T07:59:02;5.43;;;4.33;;
3689;SDS011;1861;50.240;8.596;2022-12-07T08:01:31;9.50;;;4.53;;
3689;SDS011;1861;50.240;8.596;2022-12-07T08:03:59;7.80;;;4.80;;
3689;SDS011;1861;50.240;8.596;2022-12-07T08:06:28;6.30;;;4.37;;
3689;SDS011;1861;50.240;8.596;2022-12-07T08:08:58;5.27;;;2.90;;
3689;SDS011;1861;50.240;8.596;2022-12-07T08:11:26;4.70;;;3.30;;
3689;SDS011;1861;50.240;8.596;2022-12-07T08:13:54;3.63;;;3.00;;
3689;SDS011;1861;50.240;8.596;2022-12-07T08:16:22;5.40;;;3.30;;
3689;SDS011;1861;50.240;8.596;2022-12-07T08:18:52;4.20;;;3.00;;
3689;SDS011;1861;50.240;8.596;2022-12-07T08:21:20;3.73;;;2.80;;
3689;SDS011;1861;50.240;8.596;2022-12-07T08:23:48;8.07;;;3.60;;
3689;SDS011;1861;50.240;8.596;2022-12-07T08:26:16;3.20;;;2.83;;
3689;SDS011;1861;50.240;8.596;2022-12-07T08:28:44;4.00;;;2.90;;
3689;SDS011;1861;50.240;8.596;2022-12-07T08:31:13;3.57;;;2.70;;
3689;SDS011;1861;50.240;8.596;2022-12-07T08:33:44;5.67;;;2.60;;
3689;SDS011;1861;50.240;8.596;2022-12-07T08:36:14;6.00;;;2.73;;
3689;SDS011;1861;50.240;8.596;2022-12-07T08:38:43;3.30;;;2.63;;
3689;SDS011;1861;50.240;8.596;2022-12-07T08:41:31;2.70;;;2.37;;
3689;SDS011;1861;50.240;8.596;2022-12-07T08:43:59;4.80;;;4.30;;
3689;SDS011;1861;50.240;8.596;2022-12-07T08:46:28;3.33;;;2.53;;
3689;SDS011;1861;50.240;8.596;2022-12-07T08:49:03;4.63;;;2.83;;
3689;SDS011;1861;50.240;8.596;2022-12-07T08:51:36;7.30;;;3.80;;
3689;SDS011;1861;50.240;8.596;2022-12-07T08:54:07;4.73;;;2.63;;
3689;SDS011;1861;50.240;8.596;2022-12-07T08:56:38;2.73;;;1.90;;
3689;SDS011;1861;50.240;8.596;2022-12-07T08:59:06;3.77;;;2.10;;
3689;SDS011;1861;50.240;8.596;2022-12-07T09:01:35;3.47;;;1.70;;
3689;SDS011;1861;50.240;8.596;2022-12-07T09:04:03;3.67;;;1.67;;
3689;SDS011;1861;50.240;8.596;2022-12-07T09:06:31;2.57;;;1.50;;
3689;SDS011;1861;50.240;8.596;2022-12-07T09:09:00;1.90;;;1.67;;
3689;SDS011;1861;50.240;8.596;2022-12-07T09:11:29;2.30;;;1.90;;
3689;SDS011;1861;50.240;8.596;2022-12-07T09:13:58;3.87;;;1.87;;
3689;SDS011;1861;50.240;8.596;2022-12-07T09:16:26;6.50;;;2.07;;
3689;SDS011;1861;50.240;8.596;2022-12-07T09:18:54;2.83;;;1.93;;
3689;SDS011;1861;50.240;8.596;2022-12-07T09:21:22;2.57;;;2.03;;
3689;SDS011;1861;50.240;8.596;2022-12-07T09:23:50;2.70;;;1.70;;
3689;SDS011;1861;50.240;8.596;2022-12-07T09:26:20;2.93;;;2.00;;
3689;SDS011;1861;50.240;8.596;2022-12-07T09:28:48;5.03;;;2.43;;
3689;SDS011;1861;50.240;8.596;2022-12-07T09:31:16;2.23;;;1.83;;
3689;SDS011;1861;50.240;8.596;2022-12-07T09:33:53;2.13;;;1.87;;
3689;SDS011;1861;50.240;8.596;2022-12-07T09:36:22;2.87;;;1.40;;
3689;SDS011;1861;50.240;8.596;2022-12-07T09:38:50;4.40;;;2.10;;
3689;SDS011;1861;50.240;8.596;2022-12-07T09:41:21;3.33;;;1.67;;
3689;SDS011;1861;50.240;8.596;2022-12-07T09:43:50;6.77;;;2.20;;
3689;SDS011;1861;50.240;8.596;2022-12-07T09:46:19;2.20;;;1.70;;
3689;SDS011;1861;50.240;8.596;2022-12-07T09:48:48;4.53;;;1.73;;
3689;SDS011;1861;50.240;8.596;2022-12-07T09:51:18;2.50;;;2.00;;
3689;SDS011;1861;50.240;8.596;2022-12-07T09:53:51;3.50;;;1.87;;
3689;SDS011;1861;50.240;8.596;2022-12-07T09:56:22;4.70;;;2.00;;
3689;SDS011;1861;50.240;8.596;2022-12-07T09:58:51;1.80;;;1.70;;
3689;SDS011;1861;50.240;8.596;2022-12-07T10:01:27;3.00;;;1.53;;
3689;SDS011;1861;50.240;8.596;2022-12-07T10:03:59;2.27;;;1.70;;
3689;SDS011;1861;50.240;8.596;2022-12-07T10:06:34;5.97;;;2.07;;
3689;SDS011;1861;50.240;8.596;2022-12-07T10:09:02;2.10;;;1.93;;
3689;SDS011;1861;50.240;8.596;2022-12-07T10:14:36;3.30;;;2.37;;
3689;SDS011;1861;50.240;8.596;2022-12-07T10:17:30;4.17;;;2.63;;
3689;SDS011;1861;50.240;8.596;2022-12-07T10:23:00;1.90;;;1.80;;
3689;SDS011;1861;50.240;8.596;2022-12-07T10:25:31;4.20;;;2.20;;
3689;SDS011;1861;50.240;8.596;2022-12-07T10:28:10;4.93;;;2.17;;
3689;SDS011;1861;50.240;8.596;2022-12-07T10:30:49;2.20;;;1.60;;
3689;SDS011;1861;50.240;8.596;2022-12-07T10:33:28;4.63;;;1.47;;
3689;SDS011;1861;50.240;8.596;2022-12-07T10:36:01;2.50;;;1.43;;
3689;SDS011;1861;50.240;8.596;2022-12-07T10:38:45;2.53;;;1.70;;
3689;SDS011;1861;50.240;8.596;2022-12-07T10:41:15;3.43;;;1.63;;
3689;SDS011;1861;50.240;8.596;2022-12-07T10:43:48;1.40;;;1.10;;
3689;SDS011;1861;50.240;8.596;2022-12-07T10:46:22;3.80;;;1.67;;
3689;SDS011;1861;50.240;8.596;2022-12-07T10:52:14;2.63;;;1.13;;
3689;SDS011;1861;50.240;8.596;2022-12-07T10:54:48;2.27;;;1.57;;
3689;SDS011;1861;50.240;8.596;2022-12-07T10:57:28;4.20;;;2.33;;
3689;SDS011;1861;50.240;8.596;2022-12-07T11:00:10;2.60;;;1.60;;
3689;SDS011;1861;50.240;8.596;2022-12-07T11:06:00;6.33;;;2.30;;
3689;SDS011;1861;50.240;8.596;2022-12-07T11:08:41;3.97;;;1.30;;
3689;SDS011;1861;50.240;8.596;2022-12-07T11:11:19;2.13;;;1.43;;
3689;SDS011;1861;50.240;8.596;2022-12-07T11:13:55;4.80;;;1.57;;
3689;SDS011;1861;50.240;8.596;2022-12-07T11:16:32;2.73;;;1.90;;
3689;SDS011;1861;50.240;8.596;2022-12-07T11:19:13;1.53;;;1.27;;
3689;SDS011;1861;50.240;8.596;2022-12-07T11:21:55;3.20;;;1.43;;
3689;SDS011;1861;50.240;8.596;2022-12-07T11:24:26;2.20;;;1.60;;
3689;SDS011;1861;50.240;8.596;2022-12-07T11:27:04;4.30;;;1.80;;
3689;SDS011;1861;50.240;8.596;2022-12-07T11:29:47;3.40;;;1.60;;
3689;SDS011;1861;50.240;8.596;2022-12-07T11:32:25;2.63;;;1.73;;
3689;SDS011;1861;50.240;8.596;2022-12-07T11:35:11;6.07;;;1.90;;
3689;SDS011;1861;50.240;8.596;2022-12-07T11:37:45;2.20;;;2.00;;
3689;SDS011;1861;50.240;8.596;2022-12-07T11:40:15;3.67;;;1.90;;
3689;SDS011;1861;50.240;8.596;2022-12-07T11:42:49;1.80;;;1.70;;
3689;SDS011;1861;50.240;8.596;2022-12-07T11:45:20;8.30;;;1.60;;
3689;SDS011;1861;50.240;8.596;2022-12-07T11:47:55;3.47;;;1.37;;
3689;SDS011;1861;50.240;8.596;2022-12-07T11:50:31;3.20;;;1.40;;
3689;SDS011;1861;50.240;8.596;2022-12-07T11:53:02;2.90;;;1.37;;
3689;SDS011;1861;50.240;8.596;2022-12-07T11:55:40;1.70;;;1.57;;
3689;SDS011;1861;50.240;8.596;2022-12-07T11:58:17;2.67;;;1.90;;
3689;SDS011;1861;50.240;8.596;2022-12-07T12:00:55;3.53;;;1.40;;
3689;SDS011;1861;50.240;8.596;2022-12-07T12:03:38;3.50;;;1.80;;
3689;SDS011;1861;50.240;8.596;2022-12-07T12:06:16;7.03;;;1.60;;
3689;SDS011;1861;50.240;8.596;2022-12-07T12:08:46;5.10;;;1.97;;
3689;SDS011;1861;50.240;8.596;2022-12-07T12:11:43;3.90;;;1.80;;
3689;SDS011;1861;50.240;8.596;2022-12-07T12:14:44;2.70;;;1.80;;
3689;SDS011;1861;50.240;8.596;2022-12-07T12:17:37;3.17;;;2.00;;
3689;SDS011;1861;50.240;8.596;2022-12-07T12:20:22;3.13;;;1.77;;
3689;SDS011;1861;50.240;8.596;2022-12-07T12:22:55;2.80;;;1.30;;
3689;SDS011;1861;50.240;8.596;2022-12-07T12:25:28;3.73;;;1.40;;
3689;SDS011;1861;50.240;8.596;2022-12-07T12:27:59;1.87;;;1.23;;
3689;SDS011;1861;50.240;8.596;2022-12-07T12:30:32;3.53;;;1.30;;
3689;SDS011;1861;50.240;8.596;2022-12-07T12:33:06;1.50;;;1.40;;
3689;SDS011;1861;50.240;8.596;2022-12-07T12:35:43;3.10;;;1.10;;
3689;SDS011;1861;50.240;8.596;2022-12-07T12:38:25;1.50;;;1.10;;
3689;SDS011;1861;50.240;8.596;2022-12-07T12:40:56;1.43;;;1.03;;
3689;SDS011;1861;50.240;8.596;2022-12-07T12:43:41;1.10;;;0.90;;
3689;SDS011;1861;50.240;8.596;2022-12-07T12:46:37;2.60;;;1.10;;
3689;SDS011;1861;50.240;8.596;2022-12-07T12:58:40;1.20;;;1.10;;
3689;SDS011;1861;50.240;8.596;2022-12-07T13:06:54;3.60;;;1.47;;
3689;SDS011;1861;50.240;8.596;2022-12-07T13:09:24;3.63;;;2.30;;
3689;SDS011;1861;50.240;8.596;2022-12-07T13:12:01;2.23;;;1.33;;
3689;SDS011;1861;50.240;8.596;2022-12-07T13:14:37;3.80;;;1.37;;
3689;SDS011;1861;50.240;8.596;2022-12-07T13:20:44;1.83;;;1.50;;
3689;SDS011;1861;50.240;8.596;2022-12-07T13:23:26;2.80;;;1.80;;
3689;SDS011;1861;50.240;8.596;2022-12-07T13:26:04;3.70;;;1.23;;
3689;SDS011;1861;50.240;8.596;2022-12-07T13:28:45;2.10;;;1.30;;
3689;SDS011;1861;50.240;8.596;2022-12-07T13:34:02;5.97;;;2.00;;
3689;SDS011;1861;50.240;8.596;2022-12-07T13:36:32;2.43;;;1.47;;
3689;SDS011;1861;50.240;8.596;2022-12-07T13:39:11;1.67;;;1.30;;
3689;SDS011;1861;50.240;8.596;2022-12-07T13:41:50;2.23;;;1.30;;
3689;SDS011;1861;50.240;8.596;2022-12-07T13:44:19;2.07;;;1.47;;
3689;SDS011;1861;50.240;8.596;2022-12-07T13:46:57;4.77;;;1.30;;
3689;SDS011;1861;50.240;8.596;2022-12-07T13:49:31;1.93;;;1.23;;
3689;SDS011;1861;50.240;8.596;2022-12-07T13:52:12;2.90;;;1.40;;
3689;SDS011;1861;50.240;8.596;2022-12-07T13:54:43;3.67;;;1.40;;
3689;SDS011;1861;50.240;8.596;2022-12-07T13:57:14;3.40;;;1.40;;
3689;SDS011;1861;50.240;8.596;2022-12-07T13:59:42;1.63;;;1.30;;
3689;SDS011;1861;50.240;8.596;2022-12-07T14:02:18;1.50;;;1.30;;
3689;SDS011;1861;50.240;8.596;2022-12-07T14:04:48;2.50;;;1.30;;
3689;SDS011;1861;50.240;8.596;2022-12-07T14:07:21;5.90;;;1.67;;
3689;SDS011;1861;50.240;8.596;2022-12-07T14:09:55;2.27;;;1.23;;
3689;SDS011;1861;50.240;8.596;2022-12-07T14:12:26;2.13;;;1.13;;
3689;SDS011;1861;50.240;8.596;2022-12-07T14:14:55;2.73;;;1.50;;
3689;SDS011;1861;50.240;8.596;2022-12-07T14:17:26;3.93;;;1.20;;
3689;SDS011;1861;50.240;8.596;2022-12-07T14:19:55;3.37;;;1.20;;
3689;SDS011;1861;50.240;8.596;2022-12-07T14:22:28;2.77;;;1.23;;
3689;SDS011;1861;50.240;8.596;2022-12-07T14:24:59;6.57;;;0.90;;
3689;SDS011;1861;50.240;8.596;2022-12-07T14:27:51;4.00;;;1.20;;
3689;SDS011;1861;50.240;8.596;2022-12-07T14:30:23;2.10;;;0.93;;
3689;SDS011;1861;50.240;8.596;2022-12-07T14:32:54;1.87;;;0.80;;
3689;SDS011;1861;50.240;8.596;2022-12-07T14:35:25;3.53;;;1.17;;
3689;SDS011;1861;50.240;8.596;2022-12-07T14:37:53;1.83;;;0.90;;
3689;SDS011;1861;50.240;8.596;2022-12-07T14:40:22;2.50;;;1.17;;
3689;SDS011;1861;50.240;8.596;2022-12-07T14:42:54;0.97;;;0.90;;
3689;SDS011;1861;50.240;8.596;2022-12-07T14:45:25;2.70;;;1.20;;
3689;SDS011;1861;50.240;8.596;2022-12-07T14:47:54;2.90;;;0.90;;
3689;SDS011;1861;50.240;8.596;2022-12-07T14:50:43;2.60;;;1.10;;
3689;SDS011;1861;50.240;8.596;2022-12-07T14:53:37;1.80;;;1.17;;
3689;SDS011;1861;50.240;8.596;2022-12-07T14:56:08;3.93;;;1.20;;
3689;SDS011;1861;50.240;8.596;2022-12-07T14:58:40;1.77;;;0.97;;
3689;SDS011;1861;50.240;8.596;2022-12-07T15:01:08;1.40;;;1.20;;
3689;SDS011;1861;50.240;8.596;2022-12-07T15:03:36;3.43;;;1.50;;
3689;SDS011;1861;50.240;8.596;2022-12-07T15:06:05;4.10;;;1.67;;
3689;SDS011;1861;50.240;8.596;2022-12-07T15:08:34;2.77;;;1.10;;
3689;SDS011;1861;50.240;8.596;2022-12-07T15:11:02;2.10;;;1.07;;
3689;SDS011;1861;50.240;8.596;2022-12-07T15:13:30;1.87;;;1.03;;
3689;SDS011;1861;50.240;8.596;2022-12-07T15:16:18;2.23;;;1.10;;
3689;SDS011;1861;50.240;8.596;2022-12-07T15:18:48;2.07;;;1.33;;
3689;SDS011;1861;50.240;8.596;2022-12-07T15:21:36;5.80;;;2.93;;
3689;SDS011;1861;50.240;8.596;2022-12-07T15:24:04;4.63;;;1.97;;
3689;SDS011;1861;50.240;8.596;2022-12-07T15:26:33;2.20;;;1.30;;
3689;SDS011;1861;50.240;8.596;2022-12-07T15:29:01;2.90;;;1.60;;
3689;SDS011;1861;50.240;8.596;2022-12-07T15:31:31;2.97;;;1.60;;
3689;SDS011;1861;50.240;8.596;2022-12-07T15:34:19;2.80;;;1.50;;
3689;SDS011;1861;50.240;8.596;2022-12-07T15:36:47;2.80;;;1.53;;
3689;SDS011;1861;50.240;8.596;2022-12-07T15:39:15;2.80;;;1.60;;
3689;SDS011;1861;50.240;8.596;2022-12-07T15:41:43;3.60;;;1.47;;
3689;SDS011;1861;50.240;8.596;2022-12-07T15:44:12;3.13;;;1.47;;
3689;SDS011;1861;50.240;8.596;2022-12-07T15:46:59;3.27;;;1.63;;
3689;SDS011;1861;50.240;8.596;2022-12-07T15:49:28;3.13;;;1.30;;
3689;SDS011;1861;50.240;8.596;2022-12-07T15:51:56;1.93;;;1.10;;
3689;SDS011;1861;50.240;8.596;2022-12-07T15:54:25;4.00;;;1.40;;
3689;SDS011;1861;50.240;8.596;2022-12-07T15:56:54;2.97;;;1.83;;
3689;SDS011;1861;50.240;8.596;2022-12-07T15:59:24;3.73;;;1.20;;
3689;SDS011;1861;50.240;8.596;2022-12-07T16:01:54;2.57;;;1.60;;
3689;SDS011;1861;50.240;8.596;2022-12-07T16:04:23;3.63;;;1.53;;
3689;SDS011;1861;50.240;8.596;2022-12-07T16:06:53;1.70;;;1.50;;
3689;SDS011;1861;50.240;8.596;2022-12-07T16:09:22;3.27;;;1.30;;
3689;SDS011;1861;50.240;8.596;2022-12-07T16:11:50;3.03;;;1.30;;
3689;SDS011;1861;50.240;8.596;2022-12-07T16:14:18;3.80;;;1.47;;
3689;SDS011;1861;50.240;8.596;2022-12-07T16:16:47;3.40;;;1.27;;
3689;SDS011;1861;50.240;8.596;2022-12-07T16:19:15;7.13;;;1.20;;